Flight Track Log - Related Links

Times and Time Zones

All times are in EDT time to prevent confusion due to time zone crossing. See the AWI3970 flight status page for this flight to view local times or setup timezone preferences in your user account.

Time Position Orientation Groundspeed Altitude Reporting Facility
EDT Latitude Longitude Course Direction KTS km/h feet Rate Location/Type
Thu 11:19:46 PM 39.8500 -75.2833 46° Northeast 162 299 1.200  Level Philadelphia TRACON
Thu 11:20:05 PM 39.8500 -75.3000 270° West 162 299 2.000 2.734 Climbing Philadelphia TRACON
Thu 11:21:05 PM 39.8167 -75.3500 229° Southwest 205 380 4.800 2.650 Climbing Philadelphia TRACON
Thu 11:22:00 PM 39.7999 -74.7829 105° East  Level FlightAware Approximate
Thu 11:22:05 PM 39.7667 -75.3333 166° South 260 481 7.300  Level Philadelphia TRACON
Thu 11:23:00 PM 39.8267 -74.6567 37° Northeast  Level FlightAware Approximate
Thu 11:23:05 PM 39.7667 -75.2333 90° East 303 562 9.300  Level Philadelphia TRACON
Thu 11:24:00 PM 39.9238 -74.5667 North  Level FlightAware Approximate
Thu 11:24:05 PM 39.7667 -75.1167 90° East 310 575 11.600  Level Philadelphia TRACON
Thu 11:25:00 PM 40.0149 -74.4691 46° Northeast  Level FlightAware Approximate
Thu 11:25:53 PM 39.7803 -74.9092 85° East 352 652 13.700  Level New York Center
Thu 11:26:54 PM 39.7914 -74.7747 84° East 372 689 15.700 1.918 Climbing New York Center
Thu 11:27:55 PM 39.8392 -74.6531 63° Northeast 364 674 17.600 1.881 Climbing New York Center
Thu 11:28:52 PM 39.9289 -74.5822 31° Northeast 343 636 19.400 1.664 Climbing New York Center
Thu 11:29:54 PM 40.0169 -74.5031 35° Northeast 362 671 20.900 1.561 Climbing New York Center
Thu 11:30:55 PM 40.1117 -74.4050 38° Northeast 386 715 22.600 1.563 Climbing New York Center
Thu 11:31:53 PM 40.1956 -74.3225 37° Northeast 386 715 24.000 718 Climbing New York Center
Thu 11:32:52 PM 40.2858 -74.2319 37° Northeast 392 726 24.000  Level New York Center
Thu 11:33:54 PM 40.3783 -74.1358 38° Northeast 402 745 24.000  Level New York Center
Thu 11:35:27 PM 40.5369 -74.0075 32° Northeast 416 771 24.000  Level Boston Center
Thu 11:36:27 PM 40.6458 -73.9500 22° Northeast 416 771 24.000  Level Boston Center
Thu 11:37:27 PM 40.7531 -73.8894 23° Northeast 411 761 24.000  Level Boston Center
Thu 11:38:27 PM 40.8500 -73.7956 36° Northeast 416 771 24.000 -150 Level Boston Center
Thu 11:39:27 PM 40.9367 -73.6903 43° Northeast 421 779 23.700 -500 Descending Boston Center
Thu 11:40:27 PM 41.0294 -73.5931 38° Northeast 426 789 23.000 -350 Descending Boston Center
Thu 11:41:27 PM 41.1381 -73.5811 North 386 715 23.000  Level Boston Center
Thu 11:42:27 PM 41.2483 -73.5969 354° North 379 702 23.000 -750 Level Boston Center
Thu 11:43:27 PM 41.3544 -73.6125 354° North 379 702 21.500 -1.750 Descending Boston Center
Thu 11:44:27 PM 41.4583 -73.6283 353° North 379 702 19.500 -1.950 Descending Boston Center
Thu 11:45:27 PM 41.5603 -73.6414 355° North 379 702 17.600 -2.050 Descending Boston Center
Thu 11:46:27 PM 41.6644 -73.6572 354° North 368 681 15.400 -2.050 Descending Boston Center
Thu 11:47:27 PM 41.7644 -73.6703 354° North 363 673 13.500 -1.929 Descending Boston Center
Thu 11:48:19 PM 41.8475 -73.6831 353° North 366 678 11.800 -1.579 Descending Boston Center
Thu 11:49:02 PM 41.9244 -73.6903 356° North 360 666 11.000 -706 Descending Boston Center
Thu 11:49:27 PM 41.9642 -73.6964 353° North 358 663 11.000  Level Boston Center
Thu 11:50:02 PM 42.0244 -73.7061 353° North 363 673 11.000  Level Boston Center
Thu 11:50:27 PM 42.0536 -73.7094 355° North 364 674 11.000  Level Boston Center
Thu 11:51:03 PM 42.1264 -73.7194 354° North 367 679 11.000  Level Boston Center
Thu 11:51:27 PM 42.1639 -73.7231 356° North 364 674 11.000  Level Boston Center
Thu 11:52:03 PM 42.2242 -73.7325 353° North 356 660 11.000 -100 Level Boston Center
Thu 11:52:27 PM 42.2472 -73.7331 359° North 348 644 10.900 -1.180 Descending Boston Center
Thu 11:53:04 PM 42.3011 -73.7453 350° North 263 488 9.800 -1.800 Descending Boston Center
Thu 11:53:27 PM 42.3283 -73.7458 359° North 289 536 9.100 -1.967 Descending Boston Center
Thu 11:54:05 PM 42.3719 -73.7553 351° North 246 455 7.800 -2.000 Descending Boston Center
Thu 11:54:27 PM 42.3928 -73.7614 348° North 255 472 7.100 -2.500 Descending Boston Center
Thu 11:55:05 PM 42.4467 -73.7822 344° North 255 472 5.300 -2.500 Descending Boston Center
Thu 11:55:27 PM 42.4675 -73.7828 359° North 255 472 4.600 -2.073 Descending Boston Center
Thu 11:56:00 PM 42.5047 -73.7947 347° North 251 465 3.400 -1.600 Descending Boston Center
Thu 11:56:27 PM 42.5278 -73.7953 359° North 255 472 3.000 -400 Descending Boston Center
Thu 11:57:00 PM 42.5653 -73.8017 353° North 204 378 3.000  Level Boston Center
Thu 11:57:27 PM 42.5881 -73.7994 North 214 396 3.000 -295 Level Boston Center
Thu 11:58:01 PM 42.6153 -73.8028 355° North 153 283 2.700 -700 Descending Boston Center
Thu 11:58:27 PM 42.6361 -73.8003 North 181 335 2.300 -923 Descending Boston Center

Login

Don't have an account? Register now (free) for customized features, flight alerts, and more!